createdAt,value
2023-04-22T00:02:23.744Z,8.73
2023-04-22T00:04:51.162Z,8.57
2023-04-22T00:07:18.634Z,8.57
2023-04-22T00:09:46.028Z,8.88
2023-04-22T00:12:13.277Z,8.75
2023-04-22T00:14:40.598Z,8.35
2023-04-22T00:17:07.744Z,8.32
2023-04-22T00:19:35.156Z,9.07
2023-04-22T00:22:04.274Z,8.38
2023-04-22T00:24:31.303Z,8.63
2023-04-22T00:26:58.384Z,9.77
2023-04-22T00:29:26.029Z,10.10
2023-04-22T00:31:53.899Z,8.95
2023-04-22T00:34:21.656Z,9.77
2023-04-22T00:36:49.221Z,9.00
2023-04-22T00:39:16.301Z,8.88
2023-04-22T00:41:43.464Z,9.15
2023-04-22T00:44:11.441Z,9.63
2023-04-22T00:46:39.604Z,9.18
2023-04-22T00:49:08.191Z,8.85
2023-04-22T00:51:35.490Z,10.50
2023-04-22T00:54:03.361Z,9.68
2023-04-22T00:56:33.022Z,10.55
2023-04-22T00:59:00.291Z,10.07
2023-04-22T01:01:28.143Z,9.40
2023-04-22T01:03:56.538Z,11.10
2023-04-22T01:06:24.363Z,10.00
2023-04-22T01:08:51.399Z,10.25
2023-04-22T01:11:18.860Z,9.88
2023-04-22T01:13:46.389Z,10.27
2023-04-22T01:16:13.758Z,9.85
2023-04-22T01:18:41.709Z,8.85
2023-04-22T01:21:08.726Z,9.10
2023-04-22T01:23:35.909Z,8.98
2023-04-22T01:26:02.911Z,9.35
2023-04-22T01:28:30.613Z,10.07
2023-04-22T01:30:57.710Z,9.13
2023-04-22T01:33:24.832Z,10.05
2023-04-22T01:35:54.386Z,9.60
2023-04-22T01:38:23.341Z,9.73
2023-04-22T01:40:51.297Z,9.32
2023-04-22T01:43:18.338Z,9.20
2023-04-22T01:45:45.504Z,9.73
2023-04-22T01:48:12.734Z,9.63
2023-04-22T01:50:39.857Z,8.95
2023-04-22T01:53:07.857Z,10.13
2023-04-22T01:55:37.181Z,9.20
2023-04-22T01:58:05.414Z,8.90
2023-04-22T02:00:32.551Z,9.75
2023-04-22T02:02:59.761Z,9.25
2023-04-22T02:05:27.531Z,10.13
2023-04-22T02:07:55.226Z,9.02
2023-04-22T02:10:22.674Z,8.88
2023-04-22T02:12:49.795Z,10.02
2023-04-22T02:15:17.012Z,10.18
2023-04-22T02:17:44.139Z,9.23
2023-04-22T02:20:11.866Z,9.95
2023-04-22T02:22:41.401Z,10.65
2023-04-22T02:25:09.254Z,9.75
2023-04-22T02:27:36.676Z,9.45
2023-04-22T02:30:04.373Z,9.45
2023-04-22T02:32:31.592Z,9.32
2023-04-22T02:34:58.676Z,8.65
2023-04-22T02:37:25.639Z,9.38
2023-04-22T02:39:53.472Z,8.90
2023-04-22T02:42:20.617Z,9.57
2023-04-22T02:44:47.672Z,8.80
2023-04-22T02:47:14.736Z,9.23
2023-04-22T02:49:42.171Z,9.27
2023-04-22T02:52:09.470Z,9.02
2023-04-22T02:54:36.633Z,9.48
2023-04-22T02:57:03.599Z,9.23
2023-04-22T02:59:31.845Z,9.15
2023-04-22T03:01:58.960Z,9.35
2023-04-22T03:04:26.337Z,9.30
2023-04-22T03:06:53.994Z,8.80
2023-04-22T03:09:21.087Z,8.75
2023-04-22T03:11:48.146Z,9.18
2023-04-22T03:14:15.154Z,9.43
2023-04-22T03:16:42.251Z,9.32
2023-04-22T03:19:09.266Z,9.60
2023-04-22T03:21:36.396Z,8.93
2023-04-22T03:24:03.557Z,9.00
2023-04-22T03:26:30.924Z,8.85
2023-04-22T03:28:58.030Z,9.25
2023-04-22T03:31:25.084Z,8.95
2023-04-22T03:33:52.639Z,9.35
2023-04-22T03:36:19.743Z,9.73
2023-04-22T03:38:46.859Z,9.77
2023-04-22T03:41:13.879Z,9.32
2023-04-22T03:43:40.986Z,9.52
2023-04-22T03:46:08.291Z,9.65
2023-04-22T03:48:35.799Z,9.13
2023-04-22T03:51:02.908Z,10.75
2023-04-22T03:53:29.959Z,9.68
2023-04-22T03:55:56.973Z,10.25
2023-04-22T03:58:24.123Z,9.90
2023-04-22T04:00:51.249Z,9.32
2023-04-22T04:03:18.632Z,10.23
2023-04-22T04:05:45.953Z,9.63
2023-04-22T04:08:13.334Z,9.73
2023-04-22T04:10:41.201Z,10.32
2023-04-22T04:13:08.389Z,9.50
2023-04-22T04:15:36.959Z,10.40
2023-04-22T04:18:04.493Z,9.52
2023-04-22T04:20:31.727Z,9.82
2023-04-22T04:22:58.785Z,9.73
2023-04-22T04:25:25.957Z,9.98
2023-04-22T04:27:54.000Z,10.05
2023-04-22T04:30:22.543Z,9.73
2023-04-22T04:32:49.714Z,10.35
2023-04-22T04:35:18.383Z,10.18
2023-04-22T04:37:46.485Z,10.70
2023-04-22T04:40:13.542Z,10.63
2023-04-22T04:42:40.751Z,10.73
2023-04-22T04:45:09.340Z,9.55
2023-04-22T04:47:36.495Z,11.45
2023-04-22T04:50:04.376Z,10.85
2023-04-22T04:52:31.862Z,10.65
2023-04-22T04:54:58.966Z,10.60
2023-04-22T04:57:26.108Z,10.63
2023-04-22T04:59:53.869Z,12.10
2023-04-22T05:02:21.194Z,10.85
2023-04-22T05:04:48.985Z,11.32
2023-04-22T05:07:16.949Z,11.90
2023-04-22T05:09:44.294Z,11.70
2023-04-22T05:12:11.395Z,10.75
2023-04-22T05:14:38.446Z,10.93
2023-04-22T05:17:05.629Z,11.02
2023-04-22T05:19:32.862Z,10.85
2023-04-22T05:22:00.184Z,11.35
2023-04-22T05:24:27.229Z,11.23
2023-04-22T05:26:54.356Z,10.38
2023-04-22T05:29:22.230Z,11.05
2023-04-22T05:31:49.654Z,11.43
2023-04-22T05:34:17.230Z,10.48
2023-04-22T05:36:44.257Z,11.38
2023-04-22T05:39:11.410Z,11.23
2023-04-22T05:41:38.687Z,11.35
2023-04-22T05:44:05.722Z,11.98
2023-04-22T05:46:32.855Z,12.63
2023-04-22T05:48:59.936Z,12.77
2023-04-22T05:51:27.050Z,12.23
2023-04-22T05:53:54.380Z,12.25
2023-04-22T05:56:22.359Z,14.00
2023-04-22T05:58:56.204Z,12.60
2023-04-22T06:01:26.434Z,13.55
2023-04-22T06:03:55.847Z,13.43
2023-04-22T06:06:27.412Z,13.10
2023-04-22T06:08:54.568Z,14.18
2023-04-22T06:11:26.412Z,14.10
2023-04-22T06:13:54.876Z,14.32
2023-04-22T06:16:23.613Z,15.85
2023-04-22T06:18:50.706Z,18.35
2023-04-22T06:21:17.811Z,21.77
2023-04-22T06:23:56.471Z,15.70
2023-04-22T06:26:23.865Z,13.70
2023-04-22T06:28:51.000Z,15.10
2023-04-22T06:31:19.035Z,15.95
2023-04-22T06:33:48.102Z,15.77
2023-04-22T06:36:17.912Z,16.30
2023-04-22T06:38:47.877Z,16.70
2023-04-22T06:41:15.374Z,17.38
2023-04-22T06:43:42.900Z,17.52
2023-04-22T06:46:10.468Z,17.48
2023-04-22T06:48:37.577Z,18.13
2023-04-22T06:51:04.721Z,16.42
2023-04-22T06:53:31.790Z,18.10
2023-04-22T06:55:58.853Z,19.83
2023-04-22T06:58:26.085Z,19.90
2023-04-22T07:00:54.030Z,20.30
2023-04-22T07:03:21.263Z,17.50
2023-04-22T07:05:49.435Z,18.52
2023-04-22T07:08:17.347Z,17.23
2023-04-22T07:10:44.444Z,18.83
2023-04-22T07:13:11.527Z,20.75
2023-04-22T07:15:38.596Z,20.25
2023-04-22T07:18:05.751Z,21.00
2023-04-22T07:20:33.083Z,21.35
2023-04-22T07:23:00.148Z,22.58
2023-04-22T07:25:27.208Z,21.65
2023-04-22T07:27:54.339Z,21.23
2023-04-22T07:30:22.416Z,22.52
2023-04-22T07:32:49.860Z,23.27
2023-04-22T07:35:18.131Z,23.48
2023-04-22T07:37:45.288Z,21.13
2023-04-22T07:40:13.943Z,22.42
2023-04-22T07:42:41.412Z,22.60
2023-04-22T07:45:08.701Z,23.08
2023-04-22T07:47:35.893Z,22.42
2023-04-22T07:50:03.768Z,23.02
2023-04-22T07:52:30.965Z,22.00
2023-04-22T07:54:58.068Z,21.10
2023-04-22T07:57:25.388Z,20.58
2023-04-22T07:59:57.067Z,19.40
2023-04-22T08:02:24.417Z,20.42
2023-04-22T08:04:52.970Z,19.35
2023-04-22T08:09:50.222Z,19.83
2023-04-22T08:12:17.413Z,17.73
2023-04-22T08:14:44.448Z,18.38
2023-04-22T08:17:11.440Z,19.20
2023-04-22T08:19:38.855Z,18.48
2023-04-22T08:22:07.227Z,18.65
2023-04-22T08:24:34.277Z,17.38
2023-04-22T08:27:02.591Z,16.63
2023-04-22T08:29:29.696Z,17.70
2023-04-22T08:31:56.763Z,17.48
2023-04-22T08:34:26.044Z,15.30
2023-04-22T08:36:54.201Z,16.67
2023-04-22T08:39:21.351Z,16.35
2023-04-22T08:41:50.381Z,16.42
2023-04-22T08:44:17.863Z,15.02
2023-04-22T08:46:47.249Z,15.18
2023-04-22T08:49:20.173Z,15.88
2023-04-22T08:51:49.677Z,15.40
2023-04-22T08:54:17.375Z,14.10
2023-04-22T08:56:45.678Z,14.32
2023-04-22T08:59:13.662Z,13.07
2023-04-22T09:01:42.334Z,13.10
2023-04-22T09:04:11.358Z,12.07
2023-04-22T09:06:39.265Z,12.13
2023-04-22T09:09:08.563Z,11.13
2023-04-22T09:11:36.307Z,11.25
2023-04-22T09:14:06.722Z,11.80
2023-04-22T09:16:39.870Z,10.38
2023-04-22T09:19:11.681Z,9.98
2023-04-22T09:21:40.896Z,10.95
2023-04-22T09:24:09.176Z,10.98
2023-04-22T09:26:41.014Z,10.98
2023-04-22T09:29:13.161Z,9.45
2023-04-22T09:31:40.810Z,10.23
2023-04-22T09:34:08.719Z,10.65
2023-04-22T09:36:38.843Z,11.75
2023-04-22T09:39:08.187Z,11.13
2023-04-22T09:41:38.808Z,11.20
2023-04-22T09:44:18.151Z,11.05
2023-04-22T09:46:45.974Z,10.60
2023-04-22T09:49:17.100Z,10.10
2023-04-22T09:51:44.183Z,11.32
2023-04-22T09:54:11.633Z,9.93
2023-04-22T09:56:53.767Z,10.57
2023-04-22T09:59:30.471Z,11.07
2023-04-22T10:02:04.185Z,9.40
2023-04-22T10:04:31.605Z,10.45
2023-04-22T10:06:59.650Z,10.90
2023-04-22T10:09:26.659Z,11.20
2023-04-22T10:11:56.702Z,11.05
2023-04-22T10:14:24.688Z,8.77
2023-04-22T10:16:59.083Z,10.32
2023-04-22T10:19:27.374Z,9.68
2023-04-22T10:21:59.355Z,10.00
2023-04-22T10:24:28.440Z,9.18
2023-04-22T10:26:59.899Z,10.50
2023-04-22T10:29:35.442Z,10.05
2023-04-22T10:32:17.411Z,9.20
2023-04-22T10:34:47.138Z,9.63
2023-04-22T10:37:18.438Z,10.40
2023-04-22T10:40:07.840Z,9.77
2023-04-22T10:42:35.254Z,9.40
2023-04-22T10:45:04.473Z,9.55
2023-04-22T10:47:38.712Z,9.70
2023-04-22T10:50:19.600Z,9.85
2023-04-22T10:52:50.042Z,10.43
2023-04-22T10:55:18.456Z,10.70
2023-04-22T10:57:47.348Z,10.18
2023-04-22T11:00:22.370Z,9.93
2023-04-22T11:02:54.359Z,9.60
2023-04-22T11:05:26.323Z,9.15
2023-04-22T11:07:55.833Z,8.85
2023-04-22T11:13:09.975Z,9.38
2023-04-22T11:15:39.098Z,8.50
2023-04-22T11:18:17.041Z,8.55
2023-04-22T11:20:44.554Z,8.77
2023-04-22T11:23:11.711Z,9.02
2023-04-22T11:25:38.755Z,8.43
2023-04-22T11:28:06.200Z,10.20
2023-04-22T11:30:33.247Z,8.50
2023-04-22T11:33:00.722Z,9.10
2023-04-22T11:35:33.347Z,10.30
2023-04-22T11:38:08.600Z,9.93
2023-04-22T11:40:42.787Z,10.48
2023-04-22T11:43:12.315Z,10.07
2023-04-22T11:45:39.806Z,11.40
2023-04-22T11:48:09.318Z,11.20
2023-04-22T11:50:38.287Z,11.35
2023-04-22T11:53:18.186Z,11.77
2023-04-22T11:55:47.359Z,12.23
2023-04-22T11:58:17.334Z,11.82
2023-04-22T12:00:47.283Z,13.07
2023-04-22T12:03:19.457Z,14.10
2023-04-22T12:05:53.969Z,14.13
2023-04-22T12:08:23.742Z,14.40
2023-04-22T12:10:54.548Z,16.02
2023-04-22T12:13:24.224Z,16.15
2023-04-22T12:16:03.185Z,15.20
2023-04-22T12:18:38.190Z,14.80
2023-04-22T12:21:08.912Z,14.85
2023-04-22T12:23:53.287Z,15.18
2023-04-22T12:26:25.384Z,14.48
2023-04-22T12:28:55.956Z,13.20
2023-04-22T12:31:24.190Z,13.68
2023-04-22T12:33:51.286Z,14.57
2023-04-22T12:36:20.941Z,14.35
2023-04-22T12:38:48.348Z,14.50
2023-04-22T12:41:18.400Z,14.73
2023-04-22T12:43:45.554Z,13.65
2023-04-22T12:46:12.789Z,13.88
2023-04-22T12:48:39.933Z,14.05
2023-04-22T12:51:07.274Z,14.52
2023-04-22T12:53:34.690Z,14.77
2023-04-22T12:56:01.867Z,15.10
2023-04-22T12:58:28.968Z,14.85
2023-04-22T13:00:56.013Z,14.93
2023-04-22T13:03:24.122Z,14.77
2023-04-22T13:05:53.562Z,14.88
2023-04-22T13:08:21.137Z,15.57
2023-04-22T13:10:48.638Z,16.30
2023-04-22T13:13:19.096Z,17.95
2023-04-22T13:15:50.445Z,15.18
2023-04-22T13:18:17.750Z,17.10
2023-04-22T13:20:45.556Z,16.70
2023-04-22T13:23:13.391Z,18.15
2023-04-22T13:25:40.583Z,20.67
2023-04-22T13:28:07.697Z,18.42
2023-04-22T13:30:34.885Z,20.67
2023-04-22T13:33:02.033Z,21.40
2023-04-22T13:35:29.150Z,20.13
2023-04-22T13:37:56.260Z,19.42
2023-04-22T13:40:24.309Z,20.23
2023-04-22T13:42:53.168Z,20.75
2023-04-22T13:45:20.605Z,20.83
2023-04-22T13:47:47.873Z,22.73
2023-04-22T13:50:15.418Z,20.70
2023-04-22T13:52:42.581Z,22.52
2023-04-22T13:55:09.829Z,22.13
2023-04-22T13:57:37.054Z,22.25
2023-04-22T14:00:05.403Z,20.77
2023-04-22T14:02:32.736Z,21.05
2023-04-22T14:04:59.891Z,22.65
2023-04-22T14:07:26.974Z,22.40
2023-04-22T14:09:54.132Z,22.23
2023-04-22T14:12:21.263Z,21.25
2023-04-22T14:14:48.404Z,22.85
2023-04-22T14:17:15.565Z,21.80
2023-04-22T14:19:44.928Z,22.02
2023-04-22T14:22:11.962Z,21.90
2023-04-22T14:24:39.020Z,21.88
2023-04-22T14:27:06.202Z,24.05
2023-04-22T14:29:33.360Z,23.33
2023-04-22T14:32:01.070Z,23.70
2023-04-22T14:34:28.472Z,24.17
2023-04-22T14:36:55.629Z,24.30
2023-04-22T14:39:23.893Z,21.95
2023-04-22T14:41:51.540Z,22.58
2023-04-22T14:44:22.948Z,24.25
2023-04-22T14:46:50.047Z,23.77
2023-04-22T14:49:17.617Z,24.83
2023-04-22T14:51:44.661Z,23.42
2023-04-22T14:54:12.134Z,23.17
2023-04-22T14:56:39.322Z,23.50
2023-04-22T14:59:06.525Z,24.60
2023-04-22T15:01:33.655Z,24.67
2023-04-22T15:04:00.787Z,24.05
2023-04-22T15:06:28.347Z,23.20
2023-04-22T15:08:55.906Z,26.17
2023-04-22T15:11:24.195Z,23.90
2023-04-22T15:13:51.353Z,22.90
2023-04-22T15:16:18.505Z,24.98
2023-04-22T15:18:45.904Z,23.70
2023-04-22T15:21:13.113Z,24.50
2023-04-22T15:23:40.255Z,25.33
2023-04-22T15:26:07.383Z,23.58
2023-04-22T15:28:34.437Z,24.42
2023-04-22T15:31:01.740Z,24.50
2023-04-22T15:33:28.995Z,22.45
2023-04-22T15:35:56.122Z,24.13
2023-04-22T15:38:24.647Z,23.13
2023-04-22T15:40:51.688Z,22.48
2023-04-22T15:43:19.852Z,21.58
2023-04-22T15:45:47.494Z,21.10
2023-04-22T15:48:14.925Z,23.02
2023-04-22T15:50:42.014Z,23.23
2023-04-22T15:53:09.070Z,21.67
2023-04-22T15:55:36.096Z,22.02
2023-04-22T15:58:03.166Z,25.25
2023-04-22T16:00:30.264Z,28.48
2023-04-22T16:02:58.134Z,27.85
2023-04-22T16:05:25.503Z,28.08
2023-04-22T16:07:54.282Z,27.88
2023-04-22T16:10:21.451Z,28.75
2023-04-22T16:12:49.538Z,31.60
2023-04-22T16:15:17.831Z,29.75
2023-04-22T16:17:45.128Z,31.45
2023-04-22T16:20:12.227Z,31.15
2023-04-22T16:22:40.519Z,31.40
2023-04-22T16:25:08.544Z,31.05
2023-04-22T16:27:35.789Z,30.52
2023-04-22T16:30:03.392Z,31.73
2023-04-22T16:32:31.069Z,34.10
2023-04-22T16:35:11.175Z,33.90
2023-04-22T16:37:38.195Z,33.85
2023-04-22T16:40:06.672Z,33.28
2023-04-22T16:42:33.842Z,33.22
2023-04-22T16:45:01.555Z,36.30
2023-04-22T16:47:28.836Z,35.92
2023-04-22T16:49:56.035Z,35.95
2023-04-22T16:52:23.872Z,34.22
2023-04-22T16:54:51.572Z,33.95
2023-04-22T16:57:19.646Z,31.98
2023-04-22T16:59:47.952Z,32.03
2023-04-22T17:02:15.247Z,31.27
2023-04-22T17:04:42.896Z,30.33
2023-04-22T17:07:10.263Z,30.55
2023-04-22T17:09:37.352Z,28.38
2023-04-22T17:12:04.610Z,25.70
2023-04-22T17:14:31.860Z,24.92
2023-04-22T17:16:58.860Z,25.40
2023-04-22T17:19:26.071Z,25.80
2023-04-22T17:21:54.315Z,25.52
2023-04-22T17:24:22.376Z,27.05
2023-04-22T17:26:49.815Z,26.33
2023-04-22T17:29:21.436Z,26.23
2023-04-22T17:31:49.179Z,27.95
2023-04-22T17:34:16.796Z,26.48
2023-04-22T17:36:43.907Z,27.13
2023-04-22T17:39:11.748Z,27.15
2023-04-22T17:41:38.836Z,25.17
2023-04-22T17:44:08.739Z,25.95
2023-04-22T17:46:35.874Z,25.63
2023-04-22T17:49:03.008Z,25.27
2023-04-22T17:51:31.469Z,28.35
2023-04-22T17:53:58.664Z,26.45
2023-04-22T17:56:26.029Z,28.08
2023-04-22T17:58:53.967Z,27.88
2023-04-22T18:01:21.076Z,30.13
2023-04-22T18:03:48.284Z,30.83
2023-04-22T18:06:16.018Z,30.25
2023-04-22T18:08:43.116Z,30.23
2023-04-22T18:11:11.131Z,30.85
2023-04-22T18:13:38.494Z,31.80
2023-04-22T18:16:05.791Z,30.00
2023-04-22T18:18:32.855Z,30.88
2023-04-22T18:21:01.299Z,30.00
2023-04-22T18:23:28.886Z,30.48
2023-04-22T18:25:56.257Z,31.05
2023-04-22T18:28:26.888Z,33.00
2023-04-22T18:30:54.044Z,30.30
2023-04-22T18:33:21.078Z,33.47
2023-04-22T18:35:48.124Z,32.92
2023-04-22T18:38:15.100Z,32.40
2023-04-22T18:40:42.309Z,31.65
2023-04-22T18:43:09.382Z,32.90
2023-04-22T18:45:36.683Z,34.78
2023-04-22T18:48:03.952Z,35.33
2023-04-22T18:50:31.017Z,38.05
2023-04-22T18:52:58.130Z,38.33
2023-04-22T18:55:25.337Z,35.10
2023-04-22T18:57:52.999Z,35.60
2023-04-22T19:00:20.111Z,34.35
2023-04-22T19:02:48.071Z,34.70
2023-04-22T19:05:15.490Z,36.13
2023-04-22T19:07:44.918Z,36.88
2023-04-22T19:10:12.358Z,39.85
2023-04-22T19:12:39.479Z,36.90
2023-04-22T19:15:07.336Z,34.25
2023-04-22T19:17:34.964Z,33.95
2023-04-22T19:20:02.538Z,34.17
2023-04-22T19:22:29.585Z,36.00
2023-04-22T19:24:58.596Z,32.72
2023-04-22T19:27:26.723Z,33.15
2023-04-22T19:29:54.076Z,33.05
2023-04-22T19:32:21.157Z,33.45
2023-04-22T19:34:49.853Z,33.03
2023-04-22T19:37:18.520Z,34.08
2023-04-22T19:39:46.099Z,34.90
2023-04-22T19:42:13.294Z,34.55
2023-04-22T19:44:42.917Z,35.35
2023-04-22T19:47:10.085Z,33.53
2023-04-22T19:49:38.716Z,37.67
2023-04-22T19:52:09.472Z,32.90
2023-04-22T19:54:37.115Z,35.58
2023-04-22T19:57:06.496Z,38.20
2023-04-22T19:59:34.088Z,36.15
2023-04-22T20:02:01.614Z,37.45
2023-04-22T20:04:29.055Z,43.17
2023-04-22T20:06:57.735Z,39.30
2023-04-22T20:09:26.498Z,64.18
2023-04-22T20:11:53.978Z,74.30
2023-04-22T20:14:22.206Z,48.65
2023-04-22T20:16:49.881Z,43.58
2023-04-22T20:19:17.976Z,39.30
2023-04-22T20:21:48.193Z,42.95
2023-04-22T20:24:19.630Z,41.58
2023-04-22T20:26:48.007Z,37.75
2023-04-22T20:29:21.448Z,37.28
2023-04-22T20:31:48.822Z,36.63
2023-04-22T20:34:16.359Z,36.55
2023-04-22T20:36:43.615Z,38.33
2023-04-22T20:39:14.064Z,38.33
2023-04-22T20:41:41.577Z,36.55
2023-04-22T20:44:08.667Z,36.35
2023-04-22T20:46:35.751Z,35.95
2023-04-22T20:49:02.949Z,37.25
2023-04-22T20:51:30.011Z,37.40
2023-04-22T20:53:57.432Z,38.20
2023-04-22T20:56:25.305Z,38.03
2023-04-22T20:58:53.186Z,44.90
2023-04-22T21:01:20.430Z,48.17
2023-04-22T21:03:52.982Z,41.13
2023-04-22T21:06:21.125Z,38.57
2023-04-22T21:08:54.031Z,38.60
2023-04-22T21:11:21.568Z,37.63
2023-04-22T21:13:50.279Z,52.60
2023-04-22T21:16:19.126Z,54.55
2023-04-22T21:18:47.458Z,53.17
2023-04-22T21:21:17.476Z,49.47
2023-04-22T21:23:44.742Z,61.92
2023-04-22T21:26:13.882Z,62.17
2023-04-22T21:28:41.361Z,56.75
2023-04-22T21:31:08.545Z,52.33
2023-04-22T21:33:35.702Z,57.17
2023-04-22T21:36:02.853Z,43.75
2023-04-22T21:38:29.887Z,43.25
2023-04-22T21:40:56.979Z,47.25
2023-04-22T21:43:24.065Z,75.38
2023-04-22T21:45:51.095Z,56.55
2023-04-22T21:48:18.102Z,46.13
2023-04-22T21:50:45.446Z,45.90
2023-04-22T21:53:12.701Z,45.45
2023-04-22T21:55:40.299Z,45.67
2023-04-22T21:58:07.361Z,48.83
2023-04-22T22:00:34.373Z,50.30
2023-04-22T22:03:01.794Z,51.45
2023-04-22T22:05:29.338Z,49.55
2023-04-22T22:07:56.645Z,52.47
2023-04-22T22:10:24.110Z,60.05
2023-04-22T22:12:51.347Z,54.30
2023-04-22T22:15:18.731Z,48.45
2023-04-22T22:17:46.153Z,51.80
2023-04-22T22:20:16.611Z,54.45
2023-04-22T22:22:44.546Z,59.17
2023-04-22T22:25:13.549Z,58.65
2023-04-22T22:27:41.699Z,59.67
2023-04-22T22:30:09.081Z,66.57
2023-04-22T22:32:36.328Z,61.97
2023-04-22T22:35:04.161Z,64.47
2023-04-22T22:37:31.350Z,68.95
2023-04-22T22:39:58.428Z,64.00
2023-04-22T22:42:25.527Z,63.63
2023-04-22T22:44:53.736Z,78.20
2023-04-22T22:47:20.819Z,57.38
2023-04-22T22:49:47.933Z,52.47
2023-04-22T22:52:14.981Z,56.33
2023-04-22T22:54:42.614Z,52.88
2023-04-22T22:57:10.106Z,52.83
2023-04-22T22:59:37.251Z,52.13
2023-04-22T23:02:04.644Z,58.50
2023-04-22T23:04:32.101Z,51.72
2023-04-22T23:06:59.355Z,52.65
2023-04-22T23:09:26.396Z,53.95
2023-04-22T23:11:55.293Z,56.53
2023-04-22T23:14:23.697Z,49.35
2023-04-22T23:16:50.953Z,57.33
2023-04-22T23:19:18.505Z,51.35
2023-04-22T23:21:46.571Z,52.05
2023-04-22T23:24:15.190Z,48.13
2023-04-22T23:26:42.829Z,49.08
2023-04-22T23:29:10.212Z,51.10
2023-04-22T23:31:40.347Z,47.72
2023-04-22T23:34:08.085Z,46.65
2023-04-22T23:36:38.782Z,49.58
2023-04-22T23:39:06.796Z,49.30
2023-04-22T23:41:33.845Z,47.40
2023-04-22T23:44:00.886Z,46.28
2023-04-22T23:46:28.010Z,47.53
2023-04-22T23:48:55.182Z,47.92
2023-04-22T23:51:22.803Z,47.78
2023-04-22T23:53:49.877Z,49.25
2023-04-22T23:56:21.047Z,48.70
2023-04-22T23:58:49.385Z,49.10
